Time;durP1;ratioP1;P1;durP2;ratioP2;P2;SDS_P1;SDS_P2;PMS_P1;PMS_P2;Temp;Humidity;BMP_temperature;BMP_pressure;BME280_temperature;BME280_humidity;BME280_pressure;Samples;Min_cycle;Max_cycle;Signal;HPM_P1;HPM_P2
2023/03/16 00:01:21;;;;;;;33.65;16.52;;;2.00;99.90;;;;;;5028710;28;20394;-71
2023/03/16 00:04:07;;;;;;;45.53;15.30;;;2.00;99.90;;;;;;5022700;28;20432;-71
2023/03/16 00:06:52;;;;;;;67.10;15.48;;;2.00;99.90;;;;;;5021016;28;20280;-72
2023/03/16 00:09:39;;;;;;;38.95;14.00;;;2.00;99.90;;;;;;5028637;28;20597;-72
2023/03/16 00:12:25;;;;;;;49.03;15.82;;;1.90;99.90;;;;;;5021010;28;20819;-72
2023/03/16 00:15:12;;;;;;;25.30;15.25;;;1.90;99.90;;;;;;5025994;28;20346;-71
2023/03/16 00:17:58;;;;;;;40.20;15.70;;;1.90;99.90;;;;;;5024255;28;20198;-72
2023/03/16 00:20:43;;;;;;;33.22;14.82;;;1.90;99.90;;;;;;5023645;28;20266;-71
2023/03/16 00:23:34;;;;;;;19.67;15.85;;;1.90;99.90;;;;;;5023475;28;20309;-71
2023/03/16 00:26:19;;;;;;;52.47;18.10;;;1.90;99.90;;;;;;5025014;28;20289;-72
2023/03/16 00:29:05;;;;;;;35.30;15.90;;;1.90;99.90;;;;;;5034294;28;20210;-72
2023/03/16 00:31:52;;;;;;;27.85;16.48;;;1.80;99.90;;;;;;5031675;28;22140;-72
2023/03/16 00:34:37;;;;;;;23.73;15.50;;;1.80;99.90;;;;;;5025887;28;20691;-71
2023/03/16 00:37:24;;;;;;;26.92;15.73;;;1.80;99.90;;;;;;5023014;28;20203;-72
2023/03/16 00:40:12;;;;;;;30.25;15.10;;;1.80;99.90;;;;;;5019725;28;20212;-72
2023/03/16 00:42:57;;;;;;;34.75;15.18;;;1.80;99.90;;;;;;5017406;28;20274;-72
2023/03/16 00:45:43;;;;;;;71.70;15.60;;;1.80;99.90;;;;;;5023843;28;20242;-72
2023/03/16 00:48:33;;;;;;;19.38;14.82;;;1.70;99.90;;;;;;5032294;28;20203;-71
2023/03/16 00:51:21;;;;;;;34.00;16.02;;;1.70;99.90;;;;;;5027771;28;20211;-71
2023/03/16 00:54:07;;;;;;;34.65;15.48;;;1.60;99.90;;;;;;5019467;28;20219;-71
2023/03/16 00:56:53;;;;;;;81.20;16.17;;;1.70;99.90;;;;;;5027298;28;20203;-72
2023/03/16 00:59:42;;;;;;;35.78;15.20;;;1.60;99.90;;;;;;5020499;28;20210;-71
2023/03/16 01:02:27;;;;;;;33.25;16.95;;;1.60;99.90;;;;;;5016171;28;20230;-71
2023/03/16 01:05:15;;;;;;;42.28;14.40;;;1.50;99.90;;;;;;5014795;28;20207;-71
2023/03/16 01:08:01;;;;;;;19.13;14.60;;;1.50;99.90;;;;;;5022547;28;20665;-71
2023/03/16 01:10:47;;;;;;;19.85;16.02;;;1.50;99.90;;;;;;5018940;28;20793;-71
2023/03/16 01:13:33;;;;;;;18.02;13.50;;;1.50;99.90;;;;;;5017183;28;20230;-71
2023/03/16 01:16:19;;;;;;;30.88;14.93;;;1.60;99.90;;;;;;5024328;28;20232;-71
2023/03/16 01:19:05;;;;;;;25.98;16.35;;;1.60;99.90;;;;;;5013903;28;20200;-71
2023/03/16 01:21:52;;;;;;;19.27;14.80;;;1.50;99.90;;;;;;5026900;28;20233;-71
2023/03/16 01:24:39;;;;;;;44.58;16.00;;;1.50;99.90;;;;;;5028982;28;20199;-71
2023/03/16 01:27:25;;;;;;;36.47;15.30;;;1.50;99.90;;;;;;5027944;28;20293;-71
2023/03/16 01:30:12;;;;;;;27.30;15.27;;;1.50;99.90;;;;;;5026260;28;20581;-71
2023/03/16 01:32:58;;;;;;;20.00;16.00;;;1.30;99.90;;;;;;5020976;28;20226;-71
2023/03/16 01:35:52;;;;;;;22.75;17.00;;;1.30;99.90;;;;;;5024058;28;20207;-71
2023/03/16 01:38:40;;;;;;;19.55;14.68;;;1.20;99.90;;;;;;5027805;28;20211;-71
2023/03/16 01:41:25;;;;;;;21.40;16.02;;;1.20;99.90;;;;;;5023966;28;20488;-72
2023/03/16 01:44:13;;;;;;;20.08;16.17;;;1.30;99.90;;;;;;5025907;28;20222;-71
2023/03/16 01:46:58;;;;;;;23.30;15.75;;;1.30;99.90;;;;;;5023284;28;20402;-71
2023/03/16 01:49:47;;;;;;;21.45;16.17;;;1.30;99.90;;;;;;5017583;28;20264;-71
2023/03/16 01:52:35;;;;;;;23.02;16.38;;;1.30;99.90;;;;;;5021198;28;20321;-71
2023/03/16 01:55:22;;;;;;;20.08;15.40;;;1.30;99.90;;;;;;5022896;28;20281;-71
2023/03/16 01:58:08;;;;;;;21.08;15.80;;;1.10;99.90;;;;;;5027177;28;20291;-71
2023/03/16 02:00:56;;;;;;;21.95;16.17;;;1.10;99.90;;;;;;5028759;28;20231;-72
2023/03/16 02:03:44;;;;;;;21.02;15.93;;;1.10;99.90;;;;;;5036815;28;20219;-71
2023/03/16 02:06:31;;;;;;;20.77;14.80;;;1.10;99.90;;;;;;5012839;28;20247;-71
2023/03/16 02:09:18;;;;;;;18.77;14.13;;;1.10;99.90;;;;;;5022814;28;20223;-71
2023/03/16 02:12:06;;;;;;;22.00;16.38;;;1.00;99.90;;;;;;5014122;28;20231;-71
2023/03/16 02:14:52;;;;;;;20.63;15.23;;;1.00;99.90;;;;;;5019587;28;20203;-71
2023/03/16 02:17:39;;;;;;;20.92;15.65;;;1.00;99.90;;;;;;5021585;28;20254;-71
2023/03/16 02:20:36;;;;;;;21.13;15.95;;;0.90;99.90;;;;;;5022784;28;21580;-71
2023/03/16 02:23:24;;;;;;;19.88;15.35;;;0.80;99.90;;;;;;5021222;28;20243;-71
2023/03/16 02:26:18;;;;;;;20.67;14.80;;;0.90;99.90;;;;;;5022101;28;20223;-71
2023/03/16 02:29:17;;;;;;;20.02;15.00;;;0.90;99.90;;;;;;5028299;28;20206;-71
2023/03/16 02:32:05;;;;;;;19.40;14.68;;;1.00;99.90;;;;;;5013759;28;20232;-71
2023/03/16 02:34:50;;;;;;;19.15;14.95;;;1.10;99.90;;;;;;5022328;28;20644;-71
2023/03/16 02:37:36;;;;;;;19.83;14.07;;;1.00;99.90;;;;;;5016075;28;20321;-72
2023/03/16 02:40:24;;;;;;;18.55;13.95;;;1.00;99.90;;;;;;5019787;28;20215;-71
2023/03/16 02:43:13;;;;;;;18.48;14.80;;;1.00;99.90;;;;;;5017510;28;20754;-71
2023/03/16 02:46:03;;;;;;;19.60;14.38;;;1.00;99.90;;;;;;5024846;28;20683;-71
2023/03/16 02:48:57;;;;;;;17.48;13.48;;;0.90;99.90;;;;;;5019756;28;20290;-72
2023/03/16 02:51:44;;;;;;;15.98;13.30;;;0.90;99.90;;;;;;5018258;28;20202;-71
2023/03/16 02:54:29;;;;;;;20.80;15.57;;;0.90;99.90;;;;;;5018636;28;20203;-71
2023/03/16 02:57:15;;;;;;;18.27;14.38;;;0.80;99.90;;;;;;5018967;28;20330;-71
2023/03/16 03:00:01;;;;;;;17.35;13.40;;;0.70;99.90;;;;;;5021443;28;20330;-71
2023/03/16 03:02:46;;;;;;;17.42;13.93;;;0.70;99.90;;;;;;5021853;28;20364;-71
2023/03/16 03:05:34;;;;;;;18.38;14.25;;;0.60;99.90;;;;;;5028189;28;20334;-71
2023/03/16 03:08:21;;;;;;;22.42;15.50;;;0.50;99.90;;;;;;5031982;28;20251;-71
2023/03/16 03:11:07;;;;;;;17.85;15.15;;;0.40;99.90;;;;;;5017415;28;20207;-71
2023/03/16 03:13:52;;;;;;;18.35;14.45;;;0.40;99.90;;;;;;5023044;28;20285;-71
2023/03/16 03:16:38;;;;;;;18.15;14.90;;;0.40;99.90;;;;;;5022825;28;20194;-71
2023/03/16 03:19:24;;;;;;;17.88;13.88;;;0.50;99.90;;;;;;5017993;28;20233;-71
2023/03/16 03:22:11;;;;;;;19.67;14.40;;;0.40;99.90;;;;;;5016830;28;20311;-73
2023/03/16 03:24:57;;;;;;;18.40;15.13;;;0.40;99.90;;;;;;5026034;28;20206;-71
2023/03/16 03:27:44;;;;;;;20.05;16.33;;;0.40;99.90;;;;;;5016930;28;20226;-71
2023/03/16 03:30:29;;;;;;;19.73;14.85;;;0.30;99.90;;;;;;5018341;28;20274;-71
2023/03/16 03:33:15;;;;;;;20.13;15.70;;;0.30;99.90;;;;;;5024672;28;20225;-71
2023/03/16 03:36:00;;;;;;;22.42;14.75;;;0.30;99.90;;;;;;5022352;28;20857;-71
2023/03/16 03:38:49;;;;;;;17.20;14.48;;;0.30;99.90;;;;;;5027670;28;20211;-71
2023/03/16 03:41:34;;;;;;;17.08;14.20;;;0.30;99.90;;;;;;5019122;28;20298;-70
2023/03/16 03:44:20;;;;;;;18.38;14.43;;;0.40;99.90;;;;;;5026530;28;20308;-70
2023/03/16 03:47:06;;;;;;;18.52;14.75;;;0.40;99.90;;;;;;5020369;28;20246;-71
2023/03/16 03:49:52;;;;;;;16.55;13.55;;;0.50;99.90;;;;;;5017337;28;20222;-71
2023/03/16 03:52:37;;;;;;;17.98;14.38;;;0.40;99.90;;;;;;5017860;28;20782;-71
2023/03/16 03:55:24;;;;;;;18.02;14.20;;;0.50;99.90;;;;;;5029205;28;20258;-71
2023/03/16 03:58:10;;;;;;;19.73;13.90;;;0.50;99.90;;;;;;5028093;28;20217;-71
2023/03/16 04:00:56;;;;;;;17.52;13.80;;;0.40;99.90;;;;;;5021610;28;20587;-70
2023/03/16 04:03:42;;;;;;;18.20;13.82;;;0.40;99.90;;;;;;5028539;28;20231;-71
2023/03/16 04:06:28;;;;;;;14.85;12.43;;;0.50;99.90;;;;;;5018974;28;20580;-73
2023/03/16 04:09:14;;;;;;;16.58;13.05;;;0.50;99.90;;;;;;5025853;28;20678;-71
2023/03/16 04:12:02;;;;;;;16.88;14.07;;;0.50;99.90;;;;;;5032224;28;20230;-71
2023/03/16 04:14:48;;;;;;;15.35;12.10;;;0.50;99.90;;;;;;5034485;28;20203;-71
2023/03/16 04:17:34;;;;;;;15.25;12.30;;;0.50;99.90;;;;;;5033712;28;20202;-70
2023/03/16 04:20:21;;;;;;;15.23;11.90;;;0.60;99.90;;;;;;5025827;28;20333;-71
2023/03/16 04:23:07;;;;;;;18.33;12.77;;;0.50;99.90;;;;;;5025284;28;20346;-71
2023/03/16 04:25:54;;;;;;;14.48;11.85;;;0.40;99.90;;;;;;5020288;28;20214;-71
2023/03/16 04:28:42;;;;;;;15.25;11.85;;;0.40;99.90;;;;;;5017045;28;20211;-70
2023/03/16 04:31:27;;;;;;;16.92;12.30;;;0.40;99.90;;;;;;5017220;28;20265;-71
2023/03/16 04:34:13;;;;;;;15.73;11.70;;;0.40;99.90;;;;;;5016475;28;20228;-71
2023/03/16 04:36:59;;;;;;;13.40;10.75;;;0.50;99.90;;;;;;5020941;28;20675;-71
2023/03/16 04:39:45;;;;;;;14.20;11.88;;;0.50;99.90;;;;;;5018800;28;20581;-70
2023/03/16 04:42:30;;;;;;;15.50;11.75;;;0.50;99.90;;;;;;5022894;28;20316;-70
2023/03/16 04:45:18;;;;;;;14.75;11.20;;;0.60;99.90;;;;;;5025338;28;20310;-71
2023/03/16 04:48:03;;;;;;;16.23;10.75;;;0.60;99.90;;;;;;5023558;28;20305;-71
2023/03/16 04:50:50;;;;;;;13.77;10.30;;;0.60;99.90;;;;;;5027075;28;20206;-71
2023/03/16 04:53:36;;;;;;;14.43;10.30;;;0.60;99.90;;;;;;5028582;28;20227;-71
2023/03/16 04:56:22;;;;;;;11.40;9.27;;;0.60;99.90;;;;;;5026489;28;20219;-71
2023/03/16 04:59:08;;;;;;;9.80;8.13;;;0.70;99.90;;;;;;5018618;28;20216;-71
2023/03/16 05:01:55;;;;;;;18.08;10.00;;;0.60;99.90;;;;;;5018263;28;20238;-71
2023/03/16 05:04:41;;;;;;;14.13;9.38;;;0.80;99.90;;;;;;5020547;28;20207;-70
2023/03/16 05:07:27;;;;;;;13.07;10.30;;;0.80;99.90;;;;;;5022782;28;20227;-71
2023/03/16 05:10:14;;;;;;;11.25;8.00;;;0.80;99.90;;;;;;5025453;28;20201;-71
2023/03/16 05:13:00;;;;;;;14.07;8.93;;;0.80;99.90;;;;;;5018539;28;20590;-71
2023/03/16 05:15:46;;;;;;;12.23;7.50;;;0.80;99.90;;;;;;5024070;28;20207;-71
2023/03/16 05:18:33;;;;;;;11.45;9.20;;;0.80;99.90;;;;;;5025542;28;20202;-71
2023/03/16 05:21:19;;;;;;;11.80;7.75;;;0.80;99.90;;;;;;5021539;28;20215;-71
2023/03/16 05:24:05;;;;;;;12.63;8.40;;;0.80;99.90;;;;;;5021402;28;20201;-71
2023/03/16 05:26:51;;;;;;;11.00;7.78;;;0.90;99.90;;;;;;5021953;28;20397;-71
2023/03/16 05:29:36;;;;;;;11.27;7.25;;;0.90;99.90;;;;;;5025462;28;20275;-71
2023/03/16 05:32:23;;;;;;;11.02;7.75;;;1.00;99.90;;;;;;5022531;28;20718;-71
2023/03/16 05:35:12;;;;;;;14.40;7.82;;;0.90;99.90;;;;;;5019334;28;20211;-71
2023/03/16 05:37:58;;;;;;;11.13;7.45;;;1.00;99.90;;;;;;5023348;28;20219;-71
2023/03/16 05:40:45;;;;;;;10.60;7.15;;;1.10;99.90;;;;;;5015412;28;20207;-72
2023/03/16 05:43:30;;;;;;;11.88;9.48;;;1.10;99.90;;;;;;5030395;28;20289;-72
2023/03/16 05:46:16;;;;;;;9.45;8.27;;;1.20;99.90;;;;;;5023822;28;20199;-72
2023/03/16 05:49:02;;;;;;;12.68;7.63;;;1.20;99.90;;;;;;5018896;28;20625;-72
2023/03/16 05:51:49;;;;;;;8.57;6.57;;;1.10;99.90;;;;;;5027753;28;20211;-72
2023/03/16 05:54:35;;;;;;;9.80;6.70;;;1.10;99.90;;;;;;5025127;28;20215;-72
2023/03/16 05:57:20;;;;;;;13.85;7.25;;;1.20;99.90;;;;;;5023326;28;20210;-72
2023/03/16 06:00:13;;;;;;;10.23;7.13;;;1.20;99.90;;;;;;5023408;28;20294;-72
2023/03/16 06:02:58;;;;;;;10.85;7.30;;;1.30;99.90;;;;;;5014775;28;20363;-72
2023/03/16 06:05:44;;;;;;;8.32;6.18;;;1.30;99.90;;;;;;5030859;28;20218;-72
2023/03/16 06:08:31;;;;;;;8.02;6.68;;;1.50;99.90;;;;;;5018401;28;20229;-71
2023/03/16 06:11:17;;;;;;;8.98;6.80;;;1.50;99.90;;;;;;5020767;28;20206;-71
2023/03/16 06:14:03;;;;;;;10.23;7.25;;;1.60;99.90;;;;;;5017053;28;20207;-71
2023/03/16 06:16:48;;;;;;;10.85;8.32;;;1.70;99.90;;;;;;5018964;28;20254;-71
2023/03/16 06:19:34;;;;;;;8.73;6.80;;;1.70;99.90;;;;;;5025667;28;20546;-71
2023/03/16 06:22:20;;;;;;;8.65;6.50;;;1.80;99.90;;;;;;5020551;28;20240;-71
2023/03/16 06:25:10;;;;;;;7.75;6.55;;;1.90;99.90;;;;;;5023773;28;20203;-71
2023/03/16 06:27:56;;;;;;;13.25;8.02;;;1.90;99.90;;;;;;5016974;28;20375;-71
2023/03/16 06:30:42;;;;;;;11.20;7.30;;;1.90;99.90;;;;;;5024982;28;20346;-71
2023/03/16 06:33:28;;;;;;;10.55;7.68;;;2.00;99.90;;;;;;5024785;28;20223;-71
2023/03/16 06:36:14;;;;;;;12.05;7.60;;;2.10;99.90;;;;;;5026699;28;20207;-71
2023/03/16 06:38:59;;;;;;;10.15;8.27;;;2.20;99.90;;;;;;5023856;28;20687;-71
2023/03/16 06:41:46;;;;;;;8.40;7.22;;;2.30;99.90;;;;;;5027835;28;20605;-71
2023/03/16 06:44:32;;;;;;;10.27;7.65;;;2.30;99.90;;;;;;5016442;28;20204;-71
2023/03/16 06:47:18;;;;;;;9.02;7.05;;;2.40;99.90;;;;;;5021844;28;20226;-71
2023/03/16 06:50:04;;;;;;;10.38;7.90;;;2.50;99.90;;;;;;5024507;28;20681;-71
2023/03/16 06:52:50;;;;;;;12.05;8.05;;;2.60;99.90;;;;;;5022324;28;20226;-70
2023/03/16 06:55:35;;;;;;;8.90;7.07;;;2.60;99.90;;;;;;5028191;28;20202;-71
2023/03/16 06:58:23;;;;;;;9.07;7.80;;;2.70;99.90;;;;;;5028638;28;20206;-71
2023/03/16 07:01:08;;;;;;;11.27;7.65;;;2.70;99.90;;;;;;5032287;22;20290;-73
2023/03/16 07:03:53;;;;;;;10.25;7.82;;;2.70;99.90;;;;;;5001635;28;20299;-73
2023/03/16 07:06:40;;;;;;;11.73;8.07;;;2.80;99.90;;;;;;4999398;28;20227;-73
2023/03/16 07:09:25;;;;;;;15.32;10.38;;;2.90;99.90;;;;;;5001220;28;20275;-73
2023/03/16 07:12:11;;;;;;;10.35;8.27;;;3.00;99.90;;;;;;4983271;28;20300;-73
2023/03/16 07:14:58;;;;;;;12.35;8.90;;;3.10;99.90;;;;;;4984751;28;20228;-73
2023/03/16 07:17:43;;;;;;;10.15;8.98;;;3.10;99.90;;;;;;4985707;28;20203;-73
2023/03/16 07:20:31;;;;;;;11.27;8.20;;;3.20;99.90;;;;;;4982485;28;20228;-73
2023/03/16 07:23:17;;;;;;;10.13;9.02;;;3.30;99.90;;;;;;4983906;28;20206;-73
2023/03/16 07:26:03;;;;;;;11.85;9.75;;;3.40;99.90;;;;;;4989859;28;20202;-74
2023/03/16 07:28:49;;;;;;;16.00;10.82;;;3.50;99.90;;;;;;4996858;28;20232;-74
2023/03/16 07:31:36;;;;;;;14.95;10.63;;;3.50;99.90;;;;;;4990522;28;20251;-73
2023/03/16 07:34:22;;;;;;;12.40;9.48;;;3.60;99.90;;;;;;4992318;28;20363;-73
2023/03/16 07:37:08;;;;;;;13.45;10.02;;;3.70;99.90;;;;;;4981116;28;20208;-73
2023/03/16 07:39:53;;;;;;;11.15;8.52;;;3.80;99.90;;;;;;4983536;28;20247;-73
2023/03/16 07:42:39;;;;;;;10.90;9.68;;;3.90;99.90;;;;;;4982937;28;20361;-73
2023/03/16 07:45:25;;;;;;;11.88;9.57;;;4.00;99.90;;;;;;4985392;28;20212;-73
2023/03/16 07:48:12;;;;;;;12.35;9.55;;;4.10;99.90;;;;;;4984153;28;20299;-73
2023/03/16 07:50:57;;;;;;;13.18;9.88;;;4.20;99.90;;;;;;4986411;28;20236;-73
2023/03/16 07:53:43;;;;;;;13.85;9.65;;;4.10;99.90;;;;;;4982210;28;20204;-73
2023/03/16 07:56:29;;;;;;;15.45;9.75;;;4.20;99.90;;;;;;4981540;28;20283;-73
2023/03/16 07:59:14;;;;;;;12.05;9.07;;;4.30;99.90;;;;;;4983584;28;20205;-73
2023/03/16 08:02:00;;;;;;;19.08;10.27;;;4.40;99.90;;;;;;4981880;28;20256;-73
2023/03/16 08:04:47;;;;;;;13.63;10.38;;;4.50;99.90;;;;;;4984254;28;20298;-73
2023/03/16 08:07:33;;;;;;;14.23;10.05;;;4.50;99.90;;;;;;4991380;28;20606;-73
2023/03/16 08:10:19;;;;;;;14.82;9.07;;;4.70;99.90;;;;;;4981582;28;20598;-73
2023/03/16 08:13:05;;;;;;;11.32;9.63;;;4.80;99.90;;;;;;4979735;28;20284;-73
2023/03/16 08:15:57;;;;;;;12.70;9.63;;;5.00;99.90;;;;;;4982757;28;20675;-72
2023/03/16 08:18:42;;;;;;;12.65;9.00;;;5.00;99.90;;;;;;4987041;28;20214;-72
2023/03/16 08:21:30;;;;;;;12.40;8.93;;;5.10;99.90;;;;;;4982451;28;20793;-72
2023/03/16 08:24:15;;;;;;;13.15;9.02;;;5.30;99.90;;;;;;4986557;28;20206;-72
2023/03/16 08:27:02;;;;;;;10.50;8.52;;;5.40;99.90;;;;;;4984976;28;20220;-72
2023/03/16 08:29:52;;;;;;;11.10;8.02;;;5.50;99.90;;;;;;4986085;28;20197;-73
2023/03/16 08:32:39;;;;;;;19.30;7.50;;;5.70;99.90;;;;;;4988049;28;20208;-73
2023/03/16 08:35:26;;;;;;;7.50;6.28;;;5.80;99.90;;;;;;4980045;28;20209;-73
2023/03/16 08:38:15;;;;;;;9.15;6.40;;;5.90;99.90;;;;;;4976493;28;20337;-72
2023/03/16 08:41:01;;;;;;;9.50;7.97;;;6.00;99.90;;;;;;4982217;28;20684;-73
2023/03/16 08:43:47;;;;;;;9.10;6.97;;;6.20;99.90;;;;;;4986797;28;20286;-73
2023/03/16 08:46:34;;;;;;;10.27;7.70;;;6.30;99.90;;;;;;4980237;28;20225;-72
2023/03/16 08:49:20;;;;;;;8.45;6.78;;;6.50;99.90;;;;;;4978967;28;20245;-72
2023/03/16 08:52:09;;;;;;;8.48;6.40;;;6.50;99.90;;;;;;4980477;28;20225;-72
2023/03/16 08:54:56;;;;;;;11.50;6.75;;;6.70;99.90;;;;;;4980887;28;20567;-72
2023/03/16 08:57:44;;;;;;;6.93;5.45;;;6.80;99.90;;;;;;4983822;28;20209;-72
2023/03/16 09:00:29;;;;;;;8.30;5.80;;;6.90;99.90;;;;;;4984777;28;20855;-72
2023/03/16 09:03:15;;;;;;;10.95;6.50;;;7.00;99.90;;;;;;4978829;28;20566;-72
2023/03/16 09:06:02;;;;;;;6.40;5.30;;;6.90;99.90;;;;;;4984847;28;20208;-73
2023/03/16 09:08:47;;;;;;;8.23;6.17;;;7.00;99.90;;;;;;4984292;28;20231;-72
2023/03/16 09:11:35;;;;;;;6.97;5.40;;;7.10;99.90;;;;;;4986015;28;20455;-72
2023/03/16 09:14:22;;;;;;;7.03;6.28;;;7.20;99.90;;;;;;4975919;28;20365;-73
2023/03/16 09:17:08;;;;;;;7.55;5.38;;;7.30;99.90;;;;;;4988103;28;20337;-72
2023/03/16 09:19:54;;;;;;;5.63;5.00;;;7.40;99.90;;;;;;4978099;28;20683;-72
2023/03/16 09:22:39;;;;;;;7.55;5.25;;;7.50;99.90;;;;;;4985300;28;20702;-72
2023/03/16 09:25:26;;;;;;;7.22;5.15;;;7.60;99.90;;;;;;4981037;28;20210;-73
2023/03/16 09:28:12;;;;;;;6.00;4.93;;;7.80;99.90;;;;;;4985258;28;20303;-72
2023/03/16 09:30:59;;;;;;;6.50;5.00;;;8.00;99.90;;;;;;4987814;28;21010;-72
2023/03/16 09:33:45;;;;;;;6.17;4.30;;;8.10;99.90;;;;;;4975328;28;20464;-72
2023/03/16 09:36:30;;;;;;;8.27;4.23;;;8.20;99.90;;;;;;4983923;28;20457;-72
2023/03/16 09:39:16;;;;;;;7.10;5.00;;;8.30;99.90;;;;;;4988537;28;20415;-72
2023/03/16 09:42:08;;;;;;;6.83;5.20;;;8.30;99.90;;;;;;4986380;28;21024;-71
2023/03/16 09:45:15;;;;;;;6.33;5.00;;;8.40;99.90;;;;;;4983175;28;20449;-73
2023/03/16 09:48:04;;;;;;;6.20;4.33;;;8.40;99.90;;;;;;4985080;28;20626;-72
2023/03/16 09:50:52;;;;;;;6.93;4.10;;;8.60;99.90;;;;;;4991950;28;20480;-73
2023/03/16 09:53:39;;;;;;;6.33;4.37;;;8.70;99.90;;;;;;4986713;28;20516;-72
2023/03/16 09:56:32;;;;;;;9.93;4.30;;;8.80;99.90;;;;;;4981695;28;20466;-73
2023/03/16 09:59:17;;;;;;;5.63;4.43;;;8.90;99.90;;;;;;4989361;28;20796;-72
2023/03/16 10:02:26;;;;;;;5.63;4.10;;;8.90;99.90;;;;;;4977526;28;20626;-72
2023/03/16 10:05:14;;;;;;;6.70;4.20;;;8.90;99.50;;;;;;4979322;28;20444;-72
2023/03/16 10:08:08;;;;;;;5.77;4.17;;;9.00;98.30;;;;;;4984975;28;20462;-72
2023/03/16 10:11:22;;;;;;;8.27;3.30;;;9.10;99.90;;;;;;4983293;28;20597;-72
2023/03/16 10:14:18;;;;;;;5.07;3.90;;;9.20;99.90;;;;;;4980473;28;20817;-72
2023/03/16 10:17:09;;;;;;;5.50;4.30;;;9.30;98.30;;;;;;4979481;28;20565;-72
2023/03/16 10:19:59;;;;;;;7.07;4.75;;;9.30;93.90;;;;;;4978024;28;20450;-72
2023/03/16 10:22:47;;;;;;;6.73;3.33;;;9.30;97.20;;;;;;4982441;28;20208;-72
2023/03/16 10:25:41;;;;;;;6.60;4.10;;;9.30;93.70;;;;;;4982630;28;20460;-72
2023/03/16 10:28:30;;;;;;;4.83;3.23;;;9.40;95.80;;;;;;4994006;28;21002;-72
2023/03/16 10:31:18;;;;;;;5.00;2.97;;;9.60;95.20;;;;;;4979997;28;20480;-72
2023/03/16 10:34:07;;;;;;;4.17;3.00;;;9.70;88.60;;;;;;4982467;28;20576;-72
2023/03/16 10:36:54;;;;;;;11.03;4.27;;;9.90;87.50;;;;;;4974294;28;20461;-73
2023/03/16 10:39:42;;;;;;;4.67;3.67;;;10.10;86.00;;;;;;4979851;28;20450;-71
2023/03/16 10:42:27;;;;;;;6.30;3.10;;;10.30;87.60;;;;;;4987563;28;20699;-72
2023/03/16 10:45:25;;;;;;;4.73;3.77;;;10.50;85.10;;;;;;4984900;28;20520;-72
2023/03/16 10:48:14;;;;;;;3.80;3.23;;;10.60;84.60;;;;;;4986476;28;20456;-72
2023/03/16 10:51:07;;;;;;;5.50;3.57;;;10.80;81.00;;;;;;4989005;28;20529;-72
2023/03/16 10:53:53;;;;;;;4.13;2.33;;;11.10;79.40;;;;;;4988457;28;20456;-72
2023/03/16 10:56:39;;;;;;;4.40;2.60;;;11.40;76.90;;;;;;4984271;28;20424;-71
2023/03/16 10:59:33;;;;;;;4.90;3.30;;;11.30;62.70;;;;;;4983623;28;20423;-72
2023/03/16 11:02:22;;;;;;;6.33;3.00;;;11.50;65.50;;;;;;4986755;28;20581;-72
2023/03/16 11:05:24;;;;;;;3.20;2.50;;;11.80;66.40;;;;;;4982754;28;20541;-72
2023/03/16 11:08:17;;;;;;;2.30;1.90;;;11.80;51.80;;;;;;4984173;28;20969;-72
2023/03/16 11:11:12;;;;;;;4.37;2.93;;;11.80;55.00;;;;;;4988792;28;20475;-72
2023/03/16 11:14:00;;;;;;;3.47;2.40;;;11.90;62.50;;;;;;4996315;28;20426;-72
2023/03/16 11:16:51;;;;;;;6.90;2.87;;;12.10;59.40;;;;;;4990054;28;20452;-71
2023/03/16 11:19:41;;;;;;;3.23;2.57;;;12.40;61.30;;;;;;4985310;28;20811;-72
2023/03/16 11:22:28;;;;;;;4.67;3.03;;;12.50;51.90;;;;;;4988488;28;20700;-72
2023/03/16 11:25:24;;;;;;;3.50;2.17;;;12.60;53.50;;;;;;4995363;28;21012;-72
2023/03/16 11:28:17;;;;;;;4.57;2.30;;;12.50;42.90;;;;;;4989873;28;20469;-72
2023/03/16 11:31:11;;;;;;;4.27;2.63;;;12.30;43.50;;;;;;4985505;28;20480;-72
2023/03/16 11:33:57;;;;;;;4.43;2.40;;;12.30;46.40;;;;;;4989989;28;20428;-72
2023/03/16 11:36:48;;;;;;;3.20;2.17;;;12.40;51.90;;;;;;4989399;28;20452;-72
2023/03/16 11:39:44;;;;;;;4.43;2.30;;;12.40;54.50;;;;;;4983476;28;20448;-72
2023/03/16 11:42:37;;;;;;;4.57;2.27;;;12.50;53.60;;;;;;4989249;28;21232;-71
2023/03/16 11:45:35;;;;;;;3.50;2.20;;;12.70;51.10;;;;;;4992649;28;20405;-72
2023/03/16 11:48:29;;;;;;;3.10;2.00;;;12.90;49.40;;;;;;4980415;28;20449;-72
2023/03/16 11:51:27;;;;;;;4.20;2.50;;;12.90;46.10;;;;;;4981999;28;20543;-73
2023/03/16 11:54:31;;;;;;;3.47;2.10;;;12.90;44.70;;;;;;4986860;28;20492;-72
2023/03/16 11:57:30;;;;;;;3.97;2.17;;;12.70;47.00;;;;;;4984820;28;20520;-71
2023/03/16 12:00:35;;;;;;;5.07;2.67;;;12.50;45.30;;;;;;4994408;28;20446;-73
2023/03/16 12:03:42;;;;;;;3.40;2.30;;;12.50;44.20;;;;;;4976953;28;20941;-72
2023/03/16 12:06:45;;;;;;;3.77;1.70;;;12.30;41.00;;;;;;4983826;28;20431;-71
2023/03/16 12:10:09;;;;;;;5.20;2.33;;;12.30;43.40;;;;;;4984091;28;20475;-71
2023/03/16 12:13:18;;;;;;;11.13;2.20;;;12.40;46.10;;;;;;4982977;28;20455;-71
2023/03/16 12:16:10;;;;;;;5.03;1.90;;;12.40;47.90;;;;;;4982237;28;20428;-72
2023/03/16 12:19:00;;;;;;;3.93;2.20;;;12.40;45.20;;;;;;4981513;28;20578;-71
2023/03/16 12:21:53;;;;;;;4.00;1.90;;;12.40;41.50;;;;;;4985973;28;20533;-71
2023/03/16 12:24:43;;;;;;;2.83;1.80;;;12.30;41.70;;;;;;4979806;28;20562;-72
2023/03/16 12:27:32;;;;;;;2.67;1.80;;;12.20;41.00;;;;;;4982728;28;20534;-72
2023/03/16 12:30:29;;;;;;;3.27;1.90;;;12.20;39.10;;;;;;4981173;28;20465;-72
2023/03/16 12:33:22;;;;;;;6.33;2.00;;;12.00;40.10;;;;;;4985593;28;20446;-72
2023/03/16 12:36:38;;;;;;;3.30;2.27;;;12.00;43.40;;;;;;4982188;28;20448;-72
2023/03/16 12:39:36;;;;;;;5.10;2.50;;;11.90;43.30;;;;;;4986919;28;20453;-71
2023/03/16 12:42:32;;;;;;;3.60;2.13;;;11.90;41.80;;;;;;4978483;28;20477;-71
2023/03/16 12:45:26;;;;;;;4.73;2.17;;;12.10;43.70;;;;;;4987323;28;20450;-72
2023/03/16 12:48:21;;;;;;;3.30;2.00;;;12.40;43.10;;;;;;4989593;28;20584;-72
2023/03/16 12:51:07;;;;;;;3.93;1.83;;;12.70;41.60;;;;;;4991304;28;21180;-72
2023/03/16 12:53:56;;;;;;;3.40;2.13;;;12.80;39.60;;;;;;4989010;28;20468;-71
2023/03/16 12:56:46;;;;;;;4.47;2.13;;;12.90;38.20;;;;;;4983677;28;20457;-72
2023/03/16 12:59:41;;;;;;;3.20;2.00;;;13.10;38.50;;;;;;4996728;28;21107;-73
2023/03/16 13:02:31;;;;;;;2.43;1.70;;;13.50;34.90;;;;;;5010767;23;20576;-85
2023/03/16 13:05:30;;;;;;;5.50;1.70;;;13.80;39.20;;;;;;5001420;28;20464;-86
2023/03/16 13:08:17;;;;;;;2.50;1.80;;;14.10;33.30;;;;;;5001389;28;20475;-85
2023/03/16 13:11:05;;;;;;;3.83;2.20;;;14.10;30.10;;;;;;4998738;28;20498;-86
2023/03/16 13:14:04;;;;;;;2.90;1.77;;;13.90;33.00;;;;;;5002659;28;20459;-86
2023/03/16 13:16:50;;;;;;;3.00;1.80;;;13.80;31.00;;;;;;5004215;28;20594;-86
2023/03/16 13:19:38;;;;;;;3.00;1.63;;;13.70;30.10;;;;;;4999634;28;20448;-86
2023/03/16 13:22:30;;;;;;;3.40;1.77;;;13.70;32.90;;;;;;5007725;28;20672;-86
2023/03/16 13:25:21;;;;;;;2.87;1.60;;;13.80;29.10;;;;;;5002800;28;20531;-86
2023/03/16 13:28:08;;;;;;;2.43;1.83;;;14.00;27.70;;;;;;4997428;28;20822;-86
2023/03/16 13:30:54;;;;;;;4.10;2.20;;;13.90;27.60;;;;;;5002228;28;20476;-86
2023/03/16 13:33:40;;;;;;;3.97;2.23;;;14.00;26.70;;;;;;5000241;28;20456;-85
2023/03/16 13:36:28;;;;;;;4.10;2.30;;;13.90;27.00;;;;;;5002228;28;20465;-86
2023/03/16 13:39:19;;;;;;;3.87;2.00;;;13.80;26.90;;;;;;5009933;28;20481;-86
2023/03/16 13:42:16;;;;;;;6.80;1.73;;;14.10;28.00;;;;;;5006320;28;20944;-86
2023/03/16 13:45:13;;;;;;;4.10;2.57;;;14.30;30.70;;;;;;5009515;28;20428;-86
2023/03/16 13:48:00;;;;;;;3.70;2.20;;;14.50;29.20;;;;;;4996616;28;20423;-86
2023/03/16 13:50:51;;;;;;;3.33;2.50;;;14.80;28.40;;;;;;5002566;28;20480;-86
2023/03/16 13:53:41;;;;;;;9.13;2.10;;;15.00;30.20;;;;;;5009808;28;20439;-86
2023/03/16 13:56:30;;;;;;;4.90;2.60;;;15.30;26.80;;;;;;5011153;28;20968;-86
2023/03/16 13:59:17;;;;;;;6.20;2.30;;;15.50;26.20;;;;;;5002490;28;20442;-86
2023/03/16 14:02:03;;;;;;;2.43;1.60;;;15.60;26.40;;;;;;5003705;28;20464;-86
2023/03/16 14:04:49;;;;;;;4.00;2.40;;;15.70;27.10;;;;;;5002006;28;20479;-86
2023/03/16 14:07:37;;;;;;;3.90;2.30;;;15.60;25.30;;;;;;5004545;28;21084;-86
2023/03/16 14:10:26;;;;;;;5.27;2.47;;;15.70;26.70;;;;;;5014803;28;20483;-86
2023/03/16 14:13:26;;;;;;;3.10;2.03;;;15.70;27.10;;;;;;5013525;28;20954;-87
2023/03/16 14:16:16;;;;;;;7.10;3.17;;;15.50;26.80;;;;;;5001621;28;20516;-85
2023/03/16 14:19:03;;;;;;;3.93;2.23;;;15.10;27.80;;;;;;4991078;28;20471;-85
2023/03/16 14:21:50;;;;;;;8.33;2.13;;;14.80;28.20;;;;;;5007112;28;20441;-86
2023/03/16 14:24:38;;;;;;;4.47;2.00;;;14.60;28.70;;;;;;5008834;28;20438;-86
2023/03/16 14:27:29;;;;;;;3.17;2.27;;;14.30;29.30;;;;;;5006178;28;20548;-86
2023/03/16 14:30:22;;;;;;;3.83;2.23;;;14.20;28.80;;;;;;4989196;28;20497;-85
2023/03/16 14:33:26;;;;;;;5.73;2.20;;;14.00;30.80;;;;;;5009061;28;20495;-86
2023/03/16 14:36:13;;;;;;;3.03;2.10;;;13.80;29.10;;;;;;5007904;28;20451;-86